Time;durP1;ratioP1;P1;durP2;ratioP2;P2;SDS_P1;SDS_P2;PMS_P1;PMS_P2;Temp;Humidity;BMP_temperature;BMP_pressure;BME280_temperature;BME280_humidity;BME280_pressure;Samples;Min_cycle;Max_cycle;Signal;HPM_P1;HPM_P2
2022/08/15 00:00:42;;;;;;;3.47;0.70;;;;;;;25.21;36.05;100303.69;16138366;19;129469;-49
2022/08/15 00:06:10;;;;;;;1.67;0.93;;;;;;;25.22;35.78;100301.72;16140090;19;129615;-47
2022/08/15 00:11:54;;;;;;;1.50;0.85;;;;;;;25.19;35.86;100294.75;16134486;19;130624;-54
2022/08/15 00:17:17;;;;;;;1.13;0.73;;;;;;;25.18;36.27;100299.53;16132978;19;129494;-48
2022/08/15 00:22:46;;;;;;;1.05;0.70;;;;;;;25.19;36.03;100304.00;16135681;19;129824;-44
2022/08/15 00:28:08;;;;;;;0.57;0.50;;;;;;;25.18;36.06;100305.13;16137731;19;129667;-46
2022/08/15 00:33:32;;;;;;;1.02;0.70;;;;;;;25.17;36.06;100286.69;16133654;19;129036;-49
2022/08/15 00:38:54;;;;;;;1.35;0.65;;;;;;;25.19;36.33;100291.94;16135532;19;129189;-48
2022/08/15 00:44:26;;;;;;;1.13;0.73;;;;;;;25.17;36.21;100292.28;16137620;19;129101;-48
2022/08/15 00:50:13;;;;;;;0.90;0.60;;;;;;;25.17;36.01;100292.28;16137925;19;129790;-52
2022/08/15 00:55:56;;;;;;;2.22;0.50;;;;;;;25.17;36.06;100295.06;16131065;19;129535;-47
2022/08/15 01:01:19;;;;;;;2.05;0.75;;;;;;;25.17;36.06;100294.25;16135950;19;130098;-48
2022/08/15 01:06:45;;;;;;;0.65;0.50;;;;;;;25.16;36.26;100293.41;16133599;19;129373;-52
2022/08/15 01:12:16;;;;;;;0.80;0.50;;;;;;;25.15;36.22;100291.75;16134369;19;130581;-47
2022/08/15 01:17:42;;;;;;;1.35;0.57;;;;;;;25.15;36.19;100288.94;16130915;19;129354;-49
2022/08/15 01:23:33;;;;;;;0.55;0.50;;;;;;;25.15;36.12;100283.34;16133538;19;129368;-50
2022/08/15 01:29:17;;;;;;;0.73;0.50;;;;;;;25.13;36.30;100277.22;16131386;19;128915;-48
2022/08/15 01:34:39;;;;;;;0.57;0.57;;;;;;;25.13;36.52;100277.22;16134592;19;129373;-47
2022/08/15 01:40:28;;;;;;;2.03;0.60;;;;;;;25.13;36.13;100273.59;16147773;19;129914;-48
2022/08/15 01:46:13;;;;;;;0.77;0.47;;;;;;;25.13;36.39;100277.22;16147828;19;129452;-45
2022/08/15 01:51:39;;;;;;;0.70;0.60;;;;;;;25.12;36.15;100269.13;16147250;19;130357;-48
2022/08/15 01:57:05;;;;;;;0.50;0.43;;;;;;;25.12;36.20;100278.34;16144675;19;130255;-47
2022/08/15 02:02:28;;;;;;;0.98;0.63;;;;;;;25.13;36.20;100279.19;16148179;19;129298;-54
2022/08/15 02:08:07;;;;;;;1.17;0.40;;;;;;;25.11;36.06;100275.88;16147584;19;128842;-46
2022/08/15 02:13:54;;;;;;;0.40;0.40;;;;;;;25.11;36.25;100282.28;16145723;19;129133;-45
2022/08/15 02:19:16;;;;;;;0.70;0.50;;;;;;;25.10;36.26;100280.66;16145421;19;129711;-47
2022/08/15 02:24:40;;;;;;;1.10;0.38;;;;;;;25.10;36.42;100285.41;16145527;19;129543;-51
2022/08/15 02:30:23;;;;;;;0.70;0.60;;;;;;;25.11;36.39;100279.50;16144915;19;130007;-47
2022/08/15 02:35:52;;;;;;;0.70;0.40;;;;;;;25.09;36.14;100279.00;16143529;19;129745;-47
2022/08/15 02:41:19;;;;;;;0.45;0.45;;;;;;;25.09;36.09;100292.97;16145031;19;129804;-46
2022/08/15 02:46:43;;;;;;;0.40;0.32;;;;;;;25.09;36.35;100279.00;16144299;19;128979;-45
2022/08/15 02:52:24;;;;;;;0.60;0.43;;;;;;;25.09;36.25;100273.38;16140709;19;129154;-52
2022/08/15 02:57:47;;;;;;;0.98;0.50;;;;;;;25.08;36.23;100274.53;16140559;19;129462;-51
2022/08/15 03:03:26;;;;;;;0.40;0.40;;;;;;;25.07;36.58;100267.25;16143627;19;129123;-53
2022/08/15 03:08:51;;;;;;;0.77;0.40;;;;;;;25.07;36.41;100264.47;16143942;19;130080;-46
2022/08/15 03:14:16;;;;;;;0.65;0.35;;;;;;;25.07;36.52;100278.47;16135393;19;129114;-53
2022/08/15 03:19:55;;;;;;;0.50;0.38;;;;;;;25.07;36.52;100270.06;16143460;19;129460;-45
2022/08/15 03:25:21;;;;;;;0.80;0.53;;;;;;;25.07;36.45;100286.84;16141980;19;129514;-45
2022/08/15 03:30:51;;;;;;;0.93;0.52;;;;;;;25.06;36.32;100284.34;16140558;19;129718;-46
2022/08/15 03:36:17;;;;;;;1.35;0.50;;;;;;;25.05;36.40;100275.13;16137463;19;128911;-52
2022/08/15 03:41:44;;;;;;;0.98;0.52;;;;;;;25.05;36.66;100263.13;16140711;19;129223;-46
2022/08/15 03:47:06;;;;;;;1.10;0.55;;;;;;;25.05;36.63;100265.91;16140269;19;129888;-54
2022/08/15 03:52:28;;;;;;;0.70;0.55;;;;;;;25.06;36.51;100264.75;16137443;19;129429;-45
2022/08/15 03:57:54;;;;;;;0.82;0.63;;;;;;;25.04;36.89;100259.47;16128884;19;129388;-45
2022/08/15 04:03:28;;;;;;;3.08;0.57;;;;;;;25.04;36.64;100267.88;16139865;19;130010;-47
2022/08/15 04:08:53;;;;;;;0.65;0.52;;;;;;;25.03;36.92;100269.00;16139643;19;129418;-45
2022/08/15 04:14:33;;;;;;;2.35;1.30;;;;;;;25.01;38.29;100257.28;16134143;19;131169;-46
2022/08/15 04:19:56;;;;;;;6.18;1.58;;;;;;;25.01;38.17;100265.69;16136781;19;131053;-48
2022/08/15 04:25:22;;;;;;;5.15;2.03;;;;;;;25.00;39.35;100275.22;16139606;19;129565;-46
2022/08/15 04:30:47;;;;;;;9.02;2.47;;;;;;;25.00;39.98;100272.41;16136093;19;131291;-46
2022/08/15 04:36:12;;;;;;;9.53;2.20;;;;;;;25.03;40.29;100280.19;16133801;19;129332;-46
2022/08/15 04:41:39;;;;;;;9.00;2.63;;;;;;;25.02;40.62;100281.34;16137973;19;129942;-45
2022/08/15 04:47:11;;;;;;;9.65;2.42;;;;;;;25.01;40.80;100283.31;16137362;19;129919;-44
2022/08/15 04:52:33;;;;;;;11.10;2.53;;;;;;;25.00;41.69;100284.44;16134725;19;130061;-45
2022/08/15 04:57:57;;;;;;;7.40;2.70;;;;;;;24.99;41.60;100295.94;16132019;19;129297;-50
2022/08/15 05:03:20;;;;;;;6.05;2.47;;;;;;;24.97;41.91;100292.63;16135581;19;131803;-45
2022/08/15 05:08:44;;;;;;;8.57;2.55;;;;;;;24.96;41.90;100296.56;16134977;19;129010;-48
2022/08/15 05:14:06;;;;;;;9.98;2.65;;;;;;;24.93;42.94;100294.38;16152553;19;130624;-47
2022/08/15 05:19:47;;;;;;;9.52;2.25;;;;;;;24.92;43.65;100293.56;16151742;19;129865;-45
2022/08/15 05:25:10;;;;;;;7.38;2.33;;;;;;;24.87;43.54;100297.22;16148133;19;129496;-54
2022/08/15 05:30:33;;;;;;;8.57;2.88;;;;;;;24.84;43.91;100308.19;16150217;19;129365;-50
2022/08/15 05:36:00;;;;;;;6.53;2.17;;;;;;;24.79;43.78;100302.69;16162883;19;129362;-46
2022/08/15 05:41:27;;;;;;;5.85;2.22;;;;;;;24.71;43.49;100299.41;16157498;19;130642;-49
2022/08/15 05:47:09;;;;;;;10.85;3.00;;;;;;;24.71;44.15;100305.00;16149401;19;129373;-48
2022/08/15 05:53:02;;;;;;;8.05;2.65;;;;;;;24.71;43.79;100307.00;16149514;19;129576;-52
2022/08/15 05:58:34;;;;;;;6.65;2.83;;;;;;;24.68;44.12;100300.03;16133396;19;132662;-54
2022/08/15 06:04:18;;;;;;;5.97;2.85;;;;;;;24.60;43.92;100319.47;16135887;19;130520;-54
2022/08/15 06:10:06;;;;;;;5.75;2.60;;;;;;;24.54;44.15;100325.13;16130604;19;129768;-53
2022/08/15 06:15:51;;;;;;;;;;;;;;;24.49;44.04;100321.56;16136723;19;131325;-52
2022/08/15 06:21:25;;;;;;;6.32;2.42;;;;;;;24.52;44.31;100315.38;16132787;19;129893;-53
2022/08/15 06:27:14;;;;;;;4.10;2.05;;;;;;;24.51;44.08;100316.50;16138157;19;129579;-53
2022/08/15 06:32:54;;;;;;;7.63;2.58;;;;;;;24.49;44.28;100310.38;16139276;19;129377;-44
2022/08/15 06:38:29;;;;;;;5.57;2.33;;;;;;;24.49;44.15;100300.06;16142348;19;130272;-50
2022/08/15 06:44:06;;;;;;;5.68;2.80;;;;;;;24.44;44.53;100319.69;16146175;19;129496;-47
2022/08/15 06:49:29;;;;;;;5.93;2.73;;;;;;;24.40;44.63;100313.88;16140516;19;129150;-46
2022/08/15 06:54:58;;;;;;;5.50;2.63;;;;;;;24.38;44.79;100318.91;16142187;19;130890;-51
2022/08/15 07:00:22;;;;;;;6.25;3.42;;;;;;;24.29;44.83;100322.69;16145873;19;131332;-47
2022/08/15 07:05:57;;;;;;;8.18;2.80;;;;;;;24.25;44.69;100317.69;16144476;19;129452;-48
2022/08/15 07:11:47;;;;;;;10.13;3.45;;;;;;;24.24;45.10;100327.22;16137533;19;130461;-47
2022/08/15 07:17:28;;;;;;;10.32;3.65;;;;;;;24.17;45.11;100323.91;16142219;19;129105;-51
2022/08/15 07:22:54;;;;;;;9.35;3.20;;;;;;;24.15;45.43;100323.38;16144853;19;129387;-49
2022/08/15 07:28:19;;;;;;;8.65;3.50;;;;;;;24.20;45.39;100326.13;16139959;19;129376;-46
2022/08/15 07:33:45;;;;;;;6.65;3.20;;;;;;;24.23;45.47;100339.50;16144525;19;129729;-48
2022/08/15 07:39:29;;;;;;;9.17;3.23;;;;;;;24.29;45.33;100342.25;16137496;19;130244;-49
2022/08/15 07:44:58;;;;;;;8.50;3.28;;;;;;;24.29;45.17;100340.28;16142274;19;128941;-49
2022/08/15 07:50:21;;;;;;;7.78;3.20;;;;;;;24.34;45.15;100333.81;16143369;19;131368;-45
2022/08/15 07:56:04;;;;;;;8.80;3.58;;;;;;;24.37;45.78;100324.81;16134453;19;132615;-47
2022/08/15 08:01:47;;;;;;;15.02;3.67;;;;;;;24.23;45.40;100331.13;16142806;19;129531;-46
2022/08/15 08:07:23;;;;;;;8.77;3.47;;;;;;;24.18;45.79;100322.78;16137538;19;129710;-44
2022/08/15 08:13:06;;;;;;;10.05;3.60;;;;;;;24.17;45.79;100329.50;16142862;19;129514;-46
2022/08/15 08:18:50;;;;;;;6.75;2.70;;;;;;;24.17;46.23;100326.72;16138243;19;129443;-49
2022/08/15 08:24:22;;;;;;;6.25;3.05;;;;;;;24.18;45.85;100347.13;16140164;19;130052;-46
2022/08/15 08:30:05;;;;;;;7.68;3.78;;;;;;;24.22;45.94;100334.19;16138590;19;129528;-49
2022/08/15 08:35:54;;;;;;;6.63;3.55;;;;;;;24.29;45.78;100350.63;16139316;19;131777;-56
2022/08/15 08:42:02;;;;;;;10.73;3.42;;;;;;;24.31;45.36;100346.41;16139044;19;130210;-48
2022/08/15 08:47:58;;;;;;;8.30;3.25;;;;;;;24.37;45.25;100347.19;16124034;19;130221;-45
2022/08/15 08:53:36;;;;;;;9.85;3.85;;;;;;;24.42;45.26;100345.16;16129081;19;130766;-48
2022/08/15 08:59:28;;;;;;;9.05;3.58;;;;;;;24.50;45.10;100345.59;16124456;19;129646;-47
2022/08/15 09:04:55;;;;;;;7.32;3.80;;;;;;;24.50;45.02;100354.81;16130253;19;130126;-48
2022/08/15 09:10:24;;;;;;;5.50;3.63;;;;;;;24.53;44.77;100357.00;16128973;19;130081;-50
2022/08/15 09:15:53;;;;;;;9.00;3.55;;;;;;;24.58;44.88;100348.56;16131440;19;129737;-48
2022/08/15 09:21:16;;;;;;;6.18;3.60;;;;;;;24.62;44.56;100356.34;16134842;19;134342;-46
2022/08/15 09:27:00;;;;;;;8.32;3.53;;;;;;;24.66;44.76;100361.03;16135723;19;128969;-49
2022/08/15 09:32:27;;;;;;;10.40;3.30;;;;;;;24.69;44.81;100365.19;16135621;19;129614;-45
2022/08/15 09:38:16;;;;;;;6.07;3.25;;;;;;;24.76;44.84;100376.81;16133633;19;129489;-46
2022/08/15 09:44:12;;;;;;;6.10;3.53;;;;;;;24.81;44.46;100362.78;16134109;19;131349;-51
2022/08/15 09:50:15;;;;;;;9.53;3.53;;;;;;;24.86;44.25;100359.88;16133226;19;130573;-52
2022/08/15 09:56:04;;;;;;;6.55;3.22;;;;;;;24.88;44.15;100362.41;16130558;19;129952;-52
2022/08/15 10:01:29;;;;;;;7.43;3.75;;;;;;;24.93;43.83;100367.94;16149074;19;129632;-45
2022/08/15 10:07:01;;;;;;;4.43;3.03;;;;;;;24.96;43.77;100358.13;16150874;19;129385;-51
2022/08/15 10:12:23;;;;;;;7.27;3.27;;;;;;;24.98;44.24;100358.66;16151282;19;129641;-48
2022/08/15 10:17:46;;;;;;;6.05;3.83;;;;;;;25.02;44.09;100356.88;16147482;19;130132;-55
2022/08/15 10:23:30;;;;;;;4.57;3.25;;;;;;;25.06;43.69;100357.97;16149155;19;129698;-49
2022/08/15 10:29:08;;;;;;;6.82;3.50;;;;;;;25.11;43.43;100355.06;16145826;19;130091;-49
2022/08/15 10:35:02;;;;;;;8.45;3.85;;;;;;;25.13;43.62;100363.97;16149528;19;129617;-49
2022/08/15 10:40:43;;;;;;;7.55;3.78;;;;;;;25.14;43.22;100354.44;16143608;19;129279;-55
2022/08/15 10:46:50;;;;;;;8.38;3.70;;;;;;;25.16;43.40;100357.78;16152319;19;129628;-53
2022/08/15 10:52:40;;;;;;;6.00;3.40;;;;;;;25.18;43.62;100361.13;16138640;19;130355;-48
2022/08/15 10:58:18;;;;;;;8.82;3.33;;;;;;;25.19;43.31;100343.19;16134436;19;129416;-51
2022/08/15 11:03:52;;;;;;;7.38;3.70;;;;;;;25.19;43.47;100333.94;16137370;19;129695;-48
2022/08/15 11:09:35;;;;;;;8.43;4.00;;;;;;;25.22;43.28;100338.13;16143152;19;128940;-54
2022/08/15 11:15:04;;;;;;;9.57;3.55;;;;;;;25.24;43.18;100328.28;16137263;19;132157;-54
2022/08/15 11:20:50;;;;;;;6.15;3.47;;;;;;;25.28;42.74;100325.69;16128914;19;129667;-51
2022/08/15 11:26:30;;;;;;;10.23;3.85;;;;;;;25.30;42.66;100324.22;16141730;19;129572;-54
2022/08/15 11:31:55;;;;;;;7.30;3.28;;;;;;;25.32;42.56;100326.75;16144214;19;129252;-52
2022/08/15 11:37:32;;;;;;;5.78;3.47;;;;;;;25.34;42.52;100332.88;16140568;19;128923;-53
2022/08/15 11:43:00;;;;;;;7.03;3.35;;;;;;;25.34;42.79;100336.47;16142607;19;128946;-48
2022/08/15 11:48:36;;;;;;;6.63;2.92;;;;;;;25.36;42.62;100344.56;16140834;19;129029;-45
2022/08/15 11:54:04;;;;;;;9.63;3.70;;;;;;;25.38;42.40;100336.69;16140706;19;131394;-46
2022/08/15 11:59:39;;;;;;;7.20;3.03;;;;;;;25.39;42.20;100327.16;16138292;19;129335;-49
2022/08/15 12:05:16;;;;;;;4.75;3.13;;;;;;;25.41;41.95;100324.88;16141903;19;129668;-49
2022/08/15 12:11:16;;;;;;;5.47;3.33;;;;;;;25.40;42.23;100323.22;16141355;19;129599;-46
2022/08/15 12:16:46;;;;;;;10.43;3.53;;;;;;;25.39;42.07;100315.13;16139354;19;129930;-53
2022/08/15 12:22:46;;;;;;;8.40;3.42;;;;;;;25.41;41.72;100318.47;16135297;19;129313;-46
2022/08/15 12:28:20;;;;;;;5.35;3.20;;;;;;;25.44;41.98;100324.28;16138807;19;128973;-51
2022/08/15 12:34:11;;;;;;;7.13;3.55;;;;;;;25.46;41.78;100315.56;16140690;19;129084;-56
2022/08/15 12:39:55;;;;;;;7.45;3.67;;;;;;;25.47;41.66;100312.47;16135062;19;128884;-49
2022/08/15 12:45:18;;;;;;;4.72;3.33;;;;;;;25.47;41.71;100309.66;16137891;19;129405;-49
2022/08/15 12:50:40;;;;;;;5.00;3.20;;;;;;;25.49;41.94;100312.16;16137754;19;129435;-50
2022/08/15 12:56:03;;;;;;;8.20;3.35;;;;;;;25.50;41.55;100311.00;16132162;19;130077;-48
2022/08/15 13:01:45;;;;;;;4.95;3.50;;;;;;;25.50;42.02;100323.03;16136077;19;129316;-56
2022/08/15 13:07:19;;;;;;;7.25;3.70;;;;;;;25.50;41.64;100339.84;16137039;19;131905;-54
2022/08/15 13:12:52;;;;;;;5.63;2.92;;;;;;;25.48;41.75;100364.50;16138788;19;129024;-54
2022/08/15 13:18:23;;;;;;;7.13;3.63;;;;;;;25.47;41.63;100371.28;16132313;19;129508;-54
2022/08/15 13:23:52;;;;;;;9.05;3.72;;;;;;;25.42;41.88;100393.75;16130805;19;130113;-55
2022/08/15 13:29:35;;;;;;;11.95;3.78;;;;;;;25.37;42.02;100401.41;16135604;19;128952;-50
2022/08/15 13:35:17;;;;;;;17.35;3.58;;;;;;;25.32;42.25;100393.94;16150287;19;130855;-53
2022/08/15 13:40:39;;;;;;;5.95;3.17;;;;;;;25.29;42.26;100394.53;16146463;19;129095;-53
2022/08/15 13:46:06;;;;;;;12.93;3.53;;;;;;;25.29;42.25;100400.13;16151212;19;129603;-51
2022/08/15 13:51:52;;;;;;;11.00;3.45;;;;;;;25.28;42.52;100404.06;16147773;19;133050;-55
2022/08/15 13:57:34;;;;;;;9.63;3.60;;;;;;;25.27;42.45;100397.66;16145843;19;129138;-54
2022/08/15 14:03:02;;;;;;;6.68;3.45;;;;;;;25.27;42.58;100385.59;16150621;19;129420;-55
2022/08/15 14:08:30;;;;;;;6.80;3.13;;;;;;;25.25;42.42;100371.94;16150639;19;128930;-52
2022/08/15 14:14:12;;;;;;;5.30;3.38;;;;;;;25.25;42.49;100365.47;16150012;19;130121;-54
2022/08/15 14:19:54;;;;;;;5.18;3.20;;;;;;;25.24;42.50;100352.63;16148366;19;129985;-50
2022/08/15 14:25:27;;;;;;;6.95;3.45;;;;;;;25.24;42.50;100347.00;16143443;19;129843;-50
2022/08/15 14:31:09;;;;;;;6.30;3.45;;;;;;;25.22;42.56;100343.72;16145759;19;130668;-55
2022/08/15 14:36:54;;;;;;;5.90;3.33;;;;;;;25.22;42.78;100338.13;16139378;19;129934;-55
2022/08/15 14:42:17;;;;;;;;;;;;;;;25.18;42.72;100341.53;16146340;19;129267;-48
2022/08/15 14:47:51;;;;;;;6.70;3.05;;;;;;;25.23;42.85;100334.19;16145053;19;130275;-51
2022/08/15 14:53:13;;;;;;;6.97;3.25;;;;;;;25.24;42.46;100330.22;16134520;19;129572;-50
2022/08/15 14:58:35;;;;;;;8.63;3.33;;;;;;;25.18;42.63;100321.94;16141443;19;130274;-51
2022/08/15 15:04:08;;;;;;;9.05;4.18;;;;;;;25.07;44.76;100303.66;16140665;19;131586;-54
2022/08/15 15:09:41;;;;;;;8.00;4.40;;;;;;;24.92;45.63;100290.75;16139330;19;130971;-46
2022/08/15 15:15:05;;;;;;;6.40;4.13;;;;;;;24.83;46.70;100281.34;16138974;19;130336;-49
2022/08/15 15:20:32;;;;;;;12.25;4.28;;;;;;;24.83;46.41;100281.34;16136258;19;130027;-51
2022/08/15 15:26:11;;;;;;;11.35;4.22;;;;;;;24.81;46.82;100276.06;16139783;19;130359;-47
2022/08/15 15:31:33;;;;;;;9.00;4.20;;;;;;;24.78;46.22;100271.06;16143387;19;130062;-52
2022/08/15 15:37:01;;;;;;;6.05;3.90;;;;;;;24.72;45.93;100280.69;16140840;19;129997;-49
2022/08/15 15:42:25;;;;;;;7.63;4.13;;;;;;;24.78;46.32;100273.88;16135544;19;129694;-54
2022/08/15 15:47:54;;;;;;;7.00;3.92;;;;;;;24.87;46.34;100271.22;16134213;19;130757;-47
2022/08/15 15:53:29;;;;;;;9.45;4.07;;;;;;;24.97;46.25;100275.84;16131300;19;130550;-52
2022/08/15 15:58:51;;;;;;;18.60;4.60;;;;;;;25.06;46.97;100274.00;16135364;19;129825;-50
2022/08/15 16:04:23;;;;;;;15.18;4.63;;;;;;;25.16;47.39;100262.63;16140450;19;130242;-51
2022/08/15 16:09:45;;;;;;;8.63;4.40;;;;;;;25.17;46.71;100275.47;16138347;19;130776;-53
2022/08/15 16:15:24;;;;;;;15.88;4.10;;;;;;;25.17;46.11;100285.84;16139951;19;132693;-52
2022/08/15 16:21:37;;;;;;;7.55;3.50;;;;;;;25.17;45.99;100280.25;16134946;19;129115;-49
2022/08/15 16:27:26;;;;;;;6.85;4.00;;;;;;;25.23;45.68;100281.00;16137776;19;129538;-49
2022/08/15 16:32:55;;;;;;;6.20;3.60;;;;;;;25.30;45.30;100282.22;16136802;19;129983;-51
2022/08/15 16:38:22;;;;;;;7.15;3.38;;;;;;;25.33;45.35;100281.63;16136472;19;129625;-52
2022/08/15 16:44:33;;;;;;;8.70;3.83;;;;;;;25.38;45.42;100275.09;16137220;19;129726;-48
2022/08/15 16:50:17;;;;;;;6.63;3.40;;;;;;;25.38;45.05;100275.09;16136928;19;129170;-53
2022/08/15 16:55:49;;;;;;;6.25;3.17;;;;;;;25.39;45.01;100276.75;16131160;19;128908;-50
2022/08/15 17:01:46;;;;;;;13.27;3.85;;;;;;;25.39;44.94;100279.56;16134368;19;130092;-54
2022/08/15 17:07:20;;;;;;;13.10;3.55;;;;;;;25.26;45.05;100277.56;16154697;19;131177;-53
2022/08/15 17:13:03;;;;;;;6.40;3.53;;;;;;;25.21;44.62;100286.06;16163065;19;129884;-54
2022/08/15 17:18:31;;;;;;;5.88;3.30;;;;;;;25.17;44.96;100288.66;16168029;19;129864;-53
2022/08/15 17:24:31;;;;;;;8.85;3.45;;;;;;;25.16;44.85;100285.00;16168991;19;129722;-49
2022/08/15 17:30:40;;;;;;;6.43;3.15;;;;;;;25.12;44.74;100278.34;16166235;19;129599;-52
2022/08/15 17:36:19;;;;;;;6.95;3.58;;;;;;;25.11;45.10;100282.28;16165573;19;129419;-54
2022/08/15 17:41:50;;;;;;;6.50;3.22;;;;;;;25.12;45.04;100285.94;16157675;19;130661;-51
2022/08/15 17:47:37;;;;;;;9.77;3.70;;;;;;;25.11;45.06;100299.06;16164678;19;131293;-49
2022/08/15 17:53:14;;;;;;;26.00;4.07;;;;;;;25.16;44.79;100301.81;16153751;19;131132;-50
2022/08/15 17:59:03;;;;;;;23.65;4.50;;;;;;;25.23;44.44;100314.59;16160611;19;130138;-52
2022/08/15 18:04:26;;;;;;;18.83;3.80;;;;;;;25.24;44.76;100321.81;16164373;19;129467;-46
2022/08/15 18:09:56;;;;;;;16.17;4.63;;;;;;;25.24;44.64;100328.28;16162622;19;129817;-52
2022/08/15 18:16:09;;;;;;;19.15;3.65;;;;;;;25.27;44.63;100343.63;16161998;19;131800;-47
2022/08/15 18:21:43;;;;;;;18.73;3.75;;;;;;;25.28;44.67;100346.13;16140385;19;129864;-52
2022/08/15 18:27:20;;;;;;;11.30;3.28;;;;;;;25.27;44.92;100358.47;16146520;19;129622;-57
2022/08/15 18:32:51;;;;;;;13.43;3.58;;;;;;;25.28;45.32;100362.06;16146120;19;131022;-51
2022/08/15 18:38:12;;;;;;;13.98;4.18;;;;;;;25.25;44.83;100383.13;16145246;19;130646;-55
2022/08/15 18:43:51;;;;;;;11.87;3.87;;;;;;;25.29;45.07;100377.75;16146916;19;129219;-49
2022/08/15 18:49:16;;;;;;;11.05;3.85;;;;;;;25.27;45.02;100380.84;16144102;19;129277;-52
2022/08/15 18:54:42;;;;;;;12.95;4.32;;;;;;;25.29;44.90;100394.53;16138629;19;129685;-52
2022/08/15 19:00:27;;;;;;;11.48;3.58;;;;;;;25.30;44.97;100385.00;16141156;19;129240;-52
2022/08/15 19:06:12;;;;;;;9.35;3.70;;;;;;;25.31;45.03;100395.88;16142910;19;129725;-51
2022/08/15 19:11:58;;;;;;;18.20;4.05;;;;;;;25.29;44.72;100400.13;16143323;19;129482;-51
2022/08/15 19:17:26;;;;;;;8.27;3.55;;;;;;;25.29;44.47;100408.53;16142837;19;129613;-51
2022/08/15 19:22:54;;;;;;;12.73;3.47;;;;;;;25.30;44.76;100413.00;16137578;19;130772;-50
2022/08/15 19:28:32;;;;;;;10.70;3.80;;;;;;;25.29;44.88;100417.75;16140877;19;129290;-51
2022/08/15 19:34:17;;;;;;;20.90;4.27;;;;;;;25.31;44.92;100425.88;16143049;19;129871;-49
2022/08/15 19:39:50;;;;;;;18.95;4.20;;;;;;;25.32;45.36;100435.94;16140378;19;129380;-54
2022/08/15 19:45:28;;;;;;;18.83;4.10;;;;;;;25.33;45.22;100444.00;16141552;19;129615;-46
2022/08/15 19:51:21;;;;;;;21.25;3.65;;;;;;;25.35;45.22;100446.53;16138514;19;129178;-52
2022/08/15 19:57:37;;;;;;;14.02;3.97;;;;;;;25.36;44.86;100456.56;16141125;19;128885;-50
2022/08/15 20:03:24;;;;;;;10.40;3.75;;;;;;;25.35;45.10;100460.53;16140932;19;129266;-54
2022/08/15 20:09:19;;;;;;;15.18;3.67;;;;;;;25.36;44.99;100461.34;16140805;19;129714;-55
2022/08/15 20:14:45;;;;;;;9.88;3.67;;;;;;;25.35;45.18;100460.53;16138809;19;129595;-54
2022/08/15 20:20:22;;;;;;;13.50;3.40;;;;;;;25.35;45.08;100460.53;16136362;19;129952;-53
2022/08/15 20:25:54;;;;;;;6.63;3.47;;;;;;;25.36;44.94;100462.16;16137313;19;129009;-54
2022/08/15 20:31:54;;;;;;;10.43;3.65;;;;;;;25.37;45.06;100461.03;16136767;19;130431;-58
2022/08/15 20:37:26;;;;;;;12.40;3.40;;;;;;;25.37;44.88;100465.81;16138236;19;129930;-52
2022/08/15 20:43:13;;;;;;;8.32;2.90;;;;;;;25.36;44.68;100473.38;16127873;19;129986;-56
2022/08/15 20:48:39;;;;;;;9.52;3.33;;;;;;;25.35;44.76;100482.94;16132652;19;130002;-52
2022/08/15 20:54:20;;;;;;;16.30;3.60;;;;;;;25.33;44.79;100469.22;16130654;19;130846;-54
2022/08/15 20:59:56;;;;;;;5.05;2.95;;;;;;;25.32;44.58;100477.94;16134313;19;129529;-50
2022/08/15 21:05:25;;;;;;;7.53;3.00;;;;;;;25.31;44.19;100481.84;16132427;19;129453;-50
2022/08/15 21:11:07;;;;;;;6.07;3.15;;;;;;;25.27;44.33;100484.44;16135063;19;129912;-53
2022/08/15 21:16:50;;;;;;;4.55;2.92;;;;;;;25.27;44.41;100492.00;16135774;19;129880;-51
2022/08/15 21:22:46;;;;;;;4.38;2.67;;;;;;;25.26;44.59;100498.72;16132214;19;129814;-51
2022/08/15 21:28:10;;;;;;;4.53;3.03;;;;;;;25.22;44.30;100500.47;16136561;19;129599;-53
2022/08/15 21:33:51;;;;;;;4.95;2.78;;;;;;;25.19;44.51;100502.75;16132644;19;130970;-55
2022/08/15 21:40:07;;;;;;;4.65;2.70;;;;;;;25.19;44.23;100505.53;16133326;19;130182;-54
2022/08/15 21:45:49;;;;;;;5.40;3.10;;;;;;;25.16;44.06;100514.53;16128158;19;129797;-53
2022/08/15 21:51:22;;;;;;;4.78;2.75;;;;;;;25.15;44.38;100518.47;16129595;19;129376;-54
2022/08/15 21:57:09;;;;;;;3.42;2.60;;;;;;;25.12;44.00;100519.06;16148876;19;130590;-53
2022/08/15 22:02:54;;;;;;;4.97;2.83;;;;;;;25.12;43.94;100524.66;16144723;19;130444;-49
2022/08/15 22:08:28;;;;;;;6.15;3.15;;;;;;;25.06;44.26;100520.28;16146657;19;129463;-56
2022/08/15 22:13:54;;;;;;;6.70;3.10;;;;;;;25.05;44.17;100518.59;16146081;19;129005;-48
2022/08/15 22:19:16;;;;;;;5.38;2.83;;;;;;;25.03;44.07;100515.28;16146309;19;129561;-54
2022/08/15 22:24:39;;;;;;;3.90;2.60;;;;;;;25.05;44.78;100513.00;16142733;19;129296;-48
2022/08/15 22:30:05;;;;;;;4.50;2.67;;;;;;;25.08;44.33;100518.00;16144805;19;129041;-49
2022/08/15 22:35:36;;;;;;;4.85;2.63;;;;;;;25.09;44.31;100513.25;16145523;19;129521;-59
2022/08/15 22:41:00;;;;;;;;;;;;;;;25.07;44.30;100519.16;16142318;19;129264;-56
2022/08/15 22:46:44;;;;;;;5.35;3.03;;;;;;;25.12;44.10;100519.06;16144232;19;129492;-56
2022/08/15 22:52:12;;;;;;;4.15;2.60;;;;;;;25.11;44.23;100520.19;16143198;19;129967;-53
2022/08/15 22:57:41;;;;;;;4.57;2.85;;;;;;;25.11;44.29;100517.38;16145321;19;129363;-50
2022/08/15 23:03:24;;;;;;;3.90;2.58;;;;;;;25.11;44.37;100517.38;16136497;19;129663;-54
2022/08/15 23:09:02;;;;;;;4.10;2.63;;;;;;;25.13;44.22;100519.91;16143804;19;129683;-48
2022/08/15 23:14:33;;;;;;;3.42;2.35;;;;;;;25.13;44.34;100514.31;16140671;19;130567;-52
2022/08/15 23:20:15;;;;;;;4.78;2.60;;;;;;;25.14;44.32;100516.81;16138413;19;129706;-56
2022/08/15 23:25:52;;;;;;;3.13;2.70;;;;;;;25.14;44.34;100519.59;16140304;19;129656;-55
2022/08/15 23:31:21;;;;;;;3.10;2.72;;;;;;;25.14;44.32;100516.81;16140273;19;129822;-54
2022/08/15 23:36:49;;;;;;;3.55;2.38;;;;;;;25.13;44.22;100517.94;16134088;19;129130;-56
2022/08/15 23:42:36;;;;;;;3.85;2.50;;;;;;;25.14;44.22;100515.97;16135619;19;129785;-56
2022/08/15 23:47:58;;;;;;;3.47;2.67;;;;;;;25.13;44.22;100525.50;16137760;19;129608;-57
2022/08/15 23:53:20;;;;;;;3.85;2.70;;;;;;;25.13;44.17;100520.72;16134690;19;129188;-53
2022/08/15 23:58:54;;;;;;;4.35;2.65;;;;;;;25.14;43.89;100524.38;16139206;19;129281;-52
